Nearby METAR Reports

 

KSEE - San Diego/Santee, California, USA
Distance from station: E 4mi, 6km
Updated: 12/08/2019 1:22pm
Rain, Overcast
Rain, Overcast
 Wind from WNW
Wind: WNW 5 mph , 7 km/h
Temperature: 61°F , 16°C
Dew Point: 59°F , 15°C
Humidity: 94%
Barometer: 30.03 inHg , 1016.9 hPa
Summary: Rain
Clouds: Overcast
Visibility: 4 miles , 6 km
Cloud details: Mostly cloudy 1200 ft
Mostly cloudy 2000 ft
Overcast 4000 ft
2019/12/08 21:22 KSEE 082122Z 29004KT 4SM RA BKN012 BKN020 OVC040 16/15 A3003
KMYF - San Diego/Mntgmy, California, USA
Distance from station: W 6mi, 10km
Updated: 12/08/2019 1:53pm
Light rain, Overcast
Light rain, Overcast
 Wind from WSW
Wind: WSW 7 mph , 11 km/h
Temperature: 63°F , 17°C
Dew Point: 57°F , 14°C
Humidity: 83%
Barometer: 30.02 inHg , 1016.6 hPa
Summary: Light rain
Clouds: Overcast
Visibility: 10 miles , 16 km
Cloud details: Mostly cloudy 900 ft
Mostly cloudy 1300 ft
Overcast 3800 ft
2019/12/08 21:53 KMYF 082153Z 24006KT 10SM -RA BKN009 BKN013 OVC038 17/14 A3002 RMK AO2 RAE2057B33 SLP164 P0004 T01720144
 
KNKX - Miramar Nas/San, California, USA
Distance from station: WNW 7mi, 11km
Updated: 12/08/2019 1:08pm
Overcast
Overcast
 Wind from WSW
Wind: WSW 8 mph , 13 km/h
Temperature: 64°F , 18°C
Dew Point: 59°F , 15°C
Humidity: 83%
Barometer: 30.02 inHg , 1016.6 hPa
Clouds: Overcast
Visibility: 10 miles , 16 km
Cloud details: Partly cloudy 900 ft
Mostly cloudy 1600 ft
Overcast 7000 ft
2019/12/08 21:08 KNKX 082108Z 25007KT 10SM SCT009 BKN016 OVC070 18/15 A3002 RMK AO2 T01830150
KSAN - San Diego, California, USA
Distance from station: WSW 11mi, 17km
Updated: 12/08/2019 1:51pm
Overcast
Overcast
 Wind from W
Wind: W 8 mph , 13 km/h
Temperature: 66°F , 19°C
Dew Point: 63°F , 17°C
Humidity: 88%
Barometer: 30.04 inHg , 1017.3 hPa
Clouds: Overcast
Visibility: 10 miles , 16 km
Cloud details: Few Clouds 700 ft
Mostly cloudy 1200 ft
Overcast 2000 ft
2019/12/08 21:51 KSAN 082151Z 27007KT 10SM FEW007 BKN012 OVC020 19/17 A3004 RMK AO2 RAE06 SLP171 P0000 T01890172
 
KNZY - North Island Nas, California, USA
Distance from station: SW 13mi, 22km
Updated: 12/08/2019 1:38pm
Mostly cloudy
Mostly cloudy
 Wind from W
Wind: W 10 mph , 17 km/h
Temperature: 63°F , 17°C
Dew Point: 59°F , 15°C
Humidity: 88%
Barometer: 30.02 inHg , 1016.6 hPa
Clouds: Mostly cloudy
Visibility: 10 miles , 16 km
Cloud details: Partly cloudy 900 ft
Partly cloudy 1900 ft
Mostly cloudy 7000 ft
2019/12/08 21:38 KNZY 082138Z 26009KT 10SM SCT009 SCT019 BKN070 17/15 A3002 RMK AO2 T01720150 $
KRNM - Ramona, California, USA
Distance from station: NNE 16mi, 26km
Updated: 12/08/2019 1:53pm
Overcast
Overcast
 Wind from WSW
Wind: WSW 10 mph , 17 km/h
Temperature: 61°F , 16°C
Dew Point: 55°F , 13°C
Humidity: 83%
Barometer: 30.02 inHg , 1016.6 hPa
Clouds: Overcast
Visibility: 10 miles , 16 km
Cloud details: Few Clouds 1200 ft
Mostly cloudy 3000 ft
Overcast 5500 ft
2019/12/08 21:53 KRNM 082153Z 25009KT 10SM FEW012 BKN030 OVC055 16/13 A3002 RMK AO2 SLP157 T01560133
 
KSDM - San Diego/Brown, California, USA
Distance from station: S 16mi, 26km
Updated: 12/08/2019 1:53pm
Overcast
Overcast
 Wind from WSW
Wind: WSW 8 mph , 13 km/h
Temperature: 63°F , 17°C
Dew Point: 59°F , 15°C
Humidity: 88%
Barometer: 30.02 inHg , 1016.6 hPa
Clouds: Overcast
Visibility: 10 miles , 16 km
Cloud details: Mostly cloudy 900 ft
Mostly cloudy 2100 ft
Overcast 4700 ft
2019/12/08 21:53 KSDM 082153Z 25007KT 10SM BKN009 BKN021 OVC047 17/15 A3002 RMK AO2 RAB18E47 SLP163 P0002 T01670150 $
KNRS - Imperial Beach, California, USA
Distance from station: SSW 18mi, 29km
Updated: 12/08/2019 1:47pm
Overcast
Overcast
 
Barometer: 30.03 inHg , 1016.9 hPa
Clouds: Overcast
Visibility: 10 miles , 16 km
Cloud details: Few Clouds 500 ft
Mostly cloudy 1300 ft
Overcast 3900 ft
2019/12/08 21:47 KNRS 082147Z AUTO 10SM FEW005 BKN013 OVC039 A3003 RMK AO2 RAB10E19 PNO $
 
MMTJ - Tijuana Intl Arp, Mexico
Distance from station: S 20mi, 32km
Updated: 12/08/2019 12:45pm
Overcast
Overcast
 Wind from W
Wind: W 6 mph , 9 km/h
Temperature: 63°F , 17°C
Dew Point: 59°F , 15°C
Humidity: 88%
Barometer: 30.05 inHg , 1017.6 hPa
Clouds: Overcast
Visibility: 7 miles , 11 km
Cloud details: Partly cloudy 1400 ft
Overcast 2200 ft
2019/12/08 20:45 MMTJ 082045Z 27005KT 7SM SCT014 OVC022TCU 17/15 A3005 RMK SLP190 57017 981 8/2// HZY
KCRQ - Carlsbad, California, USA
Distance from station: NW 26mi, 43km
Updated: 12/08/2019 1:53pm
Mostly cloudy
Mostly cloudy
 Wind from WSW
Wind: WSW 9 mph , 15 km/h
Temperature: 63°F , 17°C
Dew Point: 59°F , 15°C
Humidity: 88%
Barometer: 30.01 inHg , 1016.3 hPa
Clouds: Mostly cloudy
Visibility: 10 miles , 16 km
Cloud details: Mostly cloudy 800 ft
Mostly cloudy 1500 ft
2019/12/08 21:53 KCRQ 082153Z 25008KT 10SM BKN008 BKN015 17/15 A3001 RMK AO2 CIG 006V013 SLP160 T01670150
 
KOKB - Oceanside, California, USA
Distance from station: NW 33mi, 54km
Updated: 12/08/2019 1:52pm
Partly cloudy
Partly cloudy
 Wind from W
Wind: W 9 mph , 15 km/h
Temperature: 66°F , 19°C
Dew Point: 59°F , 15°C
Humidity: 78%
Barometer: 30.01 inHg , 1016.3 hPa
Clouds: Partly cloudy
Visibility: 10 miles , 16 km
Cloud details: Partly cloudy 1200 ft
2019/12/08 21:52 KOKB 082152Z AUTO 26008KT 10SM SCT012 19/15 A3001 RMK AO2 RAB2059E16 SLP160 P0000 T01890150
KCZZ - Campo, California, USA
Distance from station: ESE 35mi, 56km
Updated: 12/08/2019 1:52pm

 Wind from WSW
Wind: WSW 14 mph , 22 km/h
Temperature: 55°F , 13°C
Dew Point: 52°F , 11°C
Humidity: 88%
Barometer: 29.98 inHg , 1015.2 hPa
2019/12/08 21:52 KCZZ 082152Z AUTO 24012KT 13/11 A2998 RMK AO1 SLP134 P0003 T01330106
 
KNFG - Camp Pendleton, California, USA
Distance from station: NNW 37mi, 59km
Updated: 12/08/2019 12:55pm
Mostly cloudy
Mostly cloudy
 Wind from WSW
Wind: WSW 8 mph , 13 km/h
Temperature: 66°F , 19°C
Dew Point: 57°F , 14°C
Humidity: 73%
Barometer: 30.02 inHg , 1016.6 hPa
Clouds: Mostly cloudy
Visibility: 10 miles , 16 km
Cloud details: Partly cloudy 1400 ft
Mostly cloudy 1900 ft
Mostly cloudy 4400 ft
2019/12/08 20:55 KNFG 082055Z 25007KT 10SM SCT014 BKN019 BKN044 19/14 A3002 RMK AO2 SLP163 60001 T01890144 58023
KRIV - Riverside/March, California, USA
Distance from station: N 74mi, 119km
Updated: 12/08/2019 12:58pm
Partly cloudy
Partly cloudy
 Wind from W
Wind: W 6 mph , 9 km/h
Temperature: 64°F , 18°C
Dew Point: 59°F , 15°C
Humidity: 83%
Barometer: 30.00 inHg , 1015.9 hPa
Clouds: Partly cloudy
Visibility: 10 miles , 16 km
Cloud details: Partly cloudy 2700 ft
Partly cloudy 6000 ft
2019/12/08 20:58 KRIV 082058Z AUTO 26005KT 10SM SCT027 SCT060 18/15 A3000 RMK AO2 SLP153 T01760154 57028
 
KTRM - Thermal/Palm Spg, California, USA
Distance from station: NE 75mi, 121km
Updated: 12/08/2019 1:52pm
Mostly cloudy
Mostly cloudy
 Wind from SW
Wind: SW 3 mph , 6 km/h
Temperature: 66°F , 19°C
Dew Point: 55°F , 13°C
Humidity: 68%
Barometer: 29.93 inHg , 1013.5 hPa
Clouds: Mostly cloudy
Visibility: 8 miles , 13 km
Cloud details: Mostly cloudy 8000 ft
2019/12/08 21:52 KTRM 082152Z AUTO 23003KT 8SM BKN080 19/13 A2993 RMK AO2 SLP135 T01890133
KPSP - Palm Springs, California, USA
Distance from station: NNE 76mi, 122km
Updated: 12/08/2019 1:53pm
Clear
Clear
 Wind from SSE
Wind: SSE 8 mph , 13 km/h
Temperature: 64°F , 18°C
Dew Point: 52°F , 11°C
Humidity: 64%
Barometer: 29.95 inHg , 1014.2 hPa
Clouds: Clear
Visibility: 10 miles , 16 km
2019/12/08 21:53 KPSP 082153Z 15007KT 10SM CLR 18/11 A2995 RMK AO2 SLP144 T01830111
 
KSNA - Costa Mesa, California, USA
Distance from station: NW 76mi, 123km
Updated: 12/08/2019 1:53pm
Rain, Mostly cloudy
Rain, Mostly cloudy
 Wind from SW
Wind: SW 8 mph , 13 km/h
Temperature: 63°F , 17°C
Dew Point: 55°F , 13°C
Humidity: 77%
Barometer: 30.00 inHg , 1015.9 hPa
Summary: Rain
Clouds: Mostly cloudy
Visibility: 6 miles , 10 km
Cloud details: Partly cloudy 1800 ft
Mostly cloudy 2300 ft
Mostly cloudy 5000 ft
Mostly cloudy 25000 ft
2019/12/08 21:53 KSNA 082153Z 22007KT 6SM RA SCT018 BKN023 BKN050 BKN250 17/13 A3000 RMK AO2 RAB49 SLP159 P0001 T01720133
KNJK - El Centro Naf, California, USA
Distance from station: E 79mi, 127km
Updated: 12/08/2019 12:56pm
Mostly cloudy
Mostly cloudy
 Wind from ESE
Wind: ESE 7 mph , 11 km/h
Temperature: 64°F , 18°C
Dew Point: 57°F , 14°C
Humidity: 78%
Barometer: 29.96 inHg , 1014.6 hPa
Clouds: Mostly cloudy
Visibility: 8 miles , 13 km
Cloud details: Few Clouds 7000 ft
Partly cloudy 12000 ft
Mostly cloudy 18000 ft
Mostly cloudy 22000 ft
2019/12/08 20:56 KNJK 082056Z 11006KT 8SM FEW070 SCT120 BKN180 BKN220 18/14 A2996 RMK AO2 SLP159 T01780144 58031
 
KAJO - Corona Muni, California, USA
Distance from station: NNW 82mi, 132km
Updated: 12/08/2019 12:56pm
Overcast
Overcast
 Wind from SW
Wind: SW 6 mph , 9 km/h
Temperature: 64°F , 18°C
Dew Point: 54°F , 12°C
Humidity: 68%
Barometer: 30.01 inHg , 1016.3 hPa
Clouds: Overcast
Visibility: 10 miles , 16 km
Cloud details: Partly cloudy 3400 ft
Mostly cloudy 4100 ft
Overcast 5000 ft
2019/12/08 20:56 KAJO 082056Z AUTO 22005KT 10SM SCT034 BKN041 OVC050 18/12 A3001 RMK AO2 SLP157 6//// T01780117 58028 PNO $